Ollie, Iowa
Current Conditions -  °F | °C
As of 4:35 AM on Thursday 27 Nov 2014 (Local Time) from KFFL Reporting Station
Unknown Precip Unknown Precip  
Wind Chill:   Ceiling: 1200
Heat Index: 21°   Visibility: 10mi
Dew Point: 16°   Wind: 17mph
Humidity: 80%   Direction: 300°WNW
Pressure: 30.4"   Gusts: 23mph
Location:  41.2°N, 92.09°W
Report Text: KFFL 271035Z AUTO 30015G20KT 10SM -UP BKN012 OVC025 M06/M09 A3040 RMK AO2
Loading
Personal Weather Stations






























Interactive Weather Map New forecast layout! Learn more

10-Day Weather Forecast

Advertisements
Track Severe Weather on mobile